createdAt,value
2022-11-28T00:04:53.907Z,5.38
2022-11-28T00:09:55.351Z,6.79
2022-11-28T00:14:56.773Z,7.94
2022-11-28T00:19:58.385Z,8.38
2022-11-28T00:24:59.567Z,8.92
2022-11-28T00:30:01.204Z,9.15
2022-11-28T00:35:02.549Z,9.23
2022-11-28T00:40:04.086Z,9.37
2022-11-28T00:45:05.621Z,9.45
2022-11-28T00:50:07.177Z,9.55
2022-11-28T00:55:08.523Z,9.67
2022-11-28T01:00:10.077Z,9.79
2022-11-28T01:05:11.222Z,9.48
2022-11-28T01:10:12.284Z,7.58
2022-11-28T01:15:13.775Z,6.16
2022-11-28T01:20:14.962Z,5.95
2022-11-28T01:25:16.003Z,7.54
2022-11-28T01:30:18.338Z,8.57
2022-11-28T01:35:19.491Z,9.24
2022-11-28T01:40:20.755Z,9.75
2022-11-28T01:45:27.113Z,9.30
2022-11-28T01:50:31.945Z,7.42
2022-11-28T01:55:41.637Z,6.19
2022-11-28T02:00:42.799Z,6.53
2022-11-28T02:05:44.416Z,9.13
2022-11-28T02:11:04.441Z,10.00
2022-11-28T02:16:08.610Z,9.18
2022-11-28T02:21:12.984Z,7.42
2022-11-28T02:26:30.625Z,6.35
2022-11-28T02:31:59.038Z,6.91
2022-11-28T02:37:09.924Z,9.88
2022-11-28T02:42:22.964Z,9.86
2022-11-28T02:47:32.962Z,7.75
2022-11-28T02:52:40.326Z,6.44
2022-11-28T02:57:50.877Z,5.89
2022-11-28T03:03:03.792Z,8.50
2022-11-28T03:08:21.888Z,10.35
2022-11-28T03:13:41.798Z,10.08
2022-11-28T03:19:20.696Z,7.74
2022-11-28T03:24:32.497Z,7.69
2022-11-28T03:29:39.421Z,10.36
2022-11-28T03:34:45.491Z,10.11
2022-11-28T03:39:52.566Z,7.62
2022-11-28T03:45:01.597Z,6.23
2022-11-28T03:50:07.765Z,5.40
2022-11-28T03:55:46.528Z,6.11
2022-11-28T04:01:02.339Z,8.99
2022-11-28T04:06:18.242Z,9.51
2022-11-28T04:11:24.666Z,8.97
2022-11-28T04:16:33.108Z,7.09
2022-11-28T04:21:37.249Z,6.59
2022-11-28T04:26:44.622Z,7.96
2022-11-28T04:31:50.534Z,8.83
2022-11-28T04:36:54.428Z,9.50
2022-11-28T04:42:17.174Z,10.21
2022-11-28T04:47:18.705Z,7.90
2022-11-28T04:52:34.632Z,6.27
2022-11-28T04:57:45.202Z,5.18
2022-11-28T05:02:50.878Z,5.77
2022-11-28T05:07:52.678Z,7.93
2022-11-28T05:12:53.901Z,8.35
2022-11-28T05:17:55.081Z,8.75
2022-11-28T05:22:56.340Z,9.08
2022-11-28T05:27:57.411Z,7.74
2022-11-28T05:32:58.763Z,6.10
2022-11-28T05:37:59.788Z,5.10
2022-11-28T05:43:01.132Z,5.04
2022-11-28T05:48:02.241Z,6.77
2022-11-28T05:53:03.289Z,7.83
2022-11-28T05:58:04.764Z,8.49
2022-11-28T06:03:06.229Z,8.98
2022-11-28T06:08:07.545Z,8.27
2022-11-28T06:13:09.122Z,6.15
2022-11-28T06:18:10.129Z,5.63
2022-11-28T06:23:11.412Z,6.98
2022-11-28T06:28:12.925Z,7.88
2022-11-28T06:33:14.197Z,8.40
2022-11-28T06:38:15.343Z,8.59
2022-11-28T06:43:16.574Z,8.15
2022-11-28T06:48:17.892Z,6.31
2022-11-28T06:53:19.554Z,4.97
2022-11-28T06:58:20.795Z,4.21
2022-11-28T07:03:21.957Z,5.42
2022-11-28T07:08:23.241Z,6.97
2022-11-28T07:13:24.774Z,7.78
2022-11-28T07:18:25.852Z,8.18
2022-11-28T07:23:26.958Z,8.51
2022-11-28T07:28:31.775Z,8.60
2022-11-28T07:33:37.793Z,8.72
2022-11-28T07:38:39.190Z,8.09
2022-11-28T07:43:44.058Z,6.12
2022-11-28T07:48:47.392Z,5.61
2022-11-28T07:53:49.078Z,7.46
2022-11-28T07:58:50.874Z,8.04
2022-11-28T08:03:52.593Z,8.17
2022-11-28T08:08:56.230Z,8.25
2022-11-28T08:13:59.337Z,8.26
2022-11-28T08:19:01.547Z,8.09
2022-11-28T08:24:04.132Z,8.05
2022-11-28T08:29:05.481Z,7.80
2022-11-28T08:34:09.389Z,7.91
2022-11-28T08:39:27.551Z,8.45
2022-11-28T08:44:31.902Z,8.73
2022-11-28T08:49:39.646Z,9.00
2022-11-28T08:54:41.103Z,8.60
2022-11-28T08:59:42.956Z,6.78
2022-11-28T09:04:44.243Z,7.29
2022-11-28T09:09:45.972Z,8.51
2022-11-28T09:14:48.356Z,9.00
2022-11-28T09:19:49.468Z,9.34
2022-11-28T09:24:50.598Z,9.04
2022-11-28T09:29:51.639Z,7.15
2022-11-28T09:34:52.828Z,5.91
2022-11-28T09:40:12.071Z,6.56
2022-11-28T09:45:18.578Z,8.01
2022-11-28T09:50:25.786Z,8.72
2022-11-28T09:56:06.029Z,9.12
2022-11-28T10:01:30.007Z,8.34
2022-11-28T10:06:46.531Z,6.56
2022-11-28T10:11:50.651Z,7.60
2022-11-28T10:17:18.832Z,8.93
2022-11-28T10:22:31.875Z,9.56
2022-11-28T10:27:38.834Z,9.15
2022-11-28T10:32:44.280Z,7.50
2022-11-28T10:37:45.655Z,8.35
2022-11-28T10:43:00.298Z,9.47
2022-11-28T10:48:40.632Z,10.05
2022-11-28T10:53:54.051Z,9.33
2022-11-28T10:59:19.700Z,7.30
2022-11-28T11:04:25.863Z,7.37
2022-11-28T11:09:27.919Z,8.74
2022-11-28T11:14:39.131Z,9.42
2022-11-28T11:19:40.596Z,9.85
2022-11-28T11:24:41.981Z,10.12
2022-11-28T11:29:45.228Z,8.98
2022-11-28T11:34:47.725Z,7.87
2022-11-28T11:39:51.014Z,9.08
2022-11-28T11:44:54.047Z,9.87
2022-11-28T11:50:03.414Z,8.83
2022-11-28T11:55:24.064Z,7.22
2022-11-28T12:00:44.990Z,6.72
2022-11-28T12:06:13.289Z,8.21
2022-11-28T12:11:13.523Z,9.25
2022-11-28T12:16:33.607Z,9.65
2022-11-28T12:21:43.911Z,9.71
2022-11-28T12:27:03.004Z,9.81
2022-11-28T12:32:37.386Z,9.27
2022-11-28T12:43:47.834Z,8.63
2022-11-28T12:49:02.259Z,10.21
2022-11-28T12:54:12.560Z,9.12
2022-11-28T12:59:51.932Z,7.38
2022-11-28T13:05:11.974Z,7.22
2022-11-28T13:10:35.142Z,8.99
2022-11-28T13:15:54.464Z,9.75
2022-11-28T13:21:03.933Z,9.39
2022-11-28T13:26:20.806Z,7.59
2022-11-28T13:31:33.732Z,6.61
2022-11-28T13:43:03.074Z,9.21
2022-11-28T13:54:19.973Z,9.05
2022-11-28T13:59:22.616Z,7.11
2022-11-28T14:04:25.197Z,6.23
2022-11-28T14:10:03.711Z,7.53
2022-11-28T14:15:47.578Z,8.84
2022-11-28T14:20:58.351Z,9.34
2022-11-28T14:26:00.261Z,8.81
2022-11-28T14:31:36.031Z,6.95
2022-11-28T14:36:41.152Z,7.58
2022-11-28T14:42:04.137Z,8.35
2022-11-28T14:47:32.937Z,8.77
2022-11-28T14:52:39.847Z,8.70
2022-11-28T14:58:04.574Z,7.01
2022-11-28T15:03:30.976Z,6.11
2022-11-28T15:08:54.863Z,7.41
2022-11-28T15:14:19.336Z,8.11
2022-11-28T15:19:23.567Z,8.39
2022-11-28T15:24:31.439Z,8.58
2022-11-28T15:29:33.575Z,8.73
2022-11-28T15:34:36.898Z,7.70
2022-11-28T15:39:40.512Z,6.51
2022-11-28T15:44:43.174Z,7.33
2022-11-28T15:49:44.999Z,7.80
2022-11-28T15:54:50.720Z,8.10
2022-11-28T15:59:52.498Z,8.24
2022-11-28T16:05:02.889Z,8.45
2022-11-28T16:10:07.241Z,7.18
2022-11-28T16:15:19.972Z,7.36
2022-11-28T16:20:27.567Z,7.45
2022-11-28T16:25:29.742Z,7.56
2022-11-28T16:30:36.252Z,7.76
2022-11-28T16:35:40.876Z,8.05
2022-11-28T16:40:43.265Z,8.21
2022-11-28T16:45:45.259Z,8.47
2022-11-28T16:51:09.845Z,8.57
2022-11-28T16:56:31.172Z,6.83
2022-11-28T17:01:33.174Z,7.39
2022-11-28T17:06:38.305Z,7.93
2022-11-28T17:11:46.665Z,8.16
2022-11-28T17:16:47.925Z,8.46
2022-11-28T17:21:55.853Z,8.45
2022-11-28T17:26:57.084Z,8.31
2022-11-28T17:31:58.851Z,8.30
2022-11-28T17:37:01.546Z,8.40
2022-11-28T17:42:03.697Z,8.41
2022-11-28T17:47:05.156Z,8.42
2022-11-28T17:52:06.423Z,8.39
2022-11-28T17:57:08.560Z,8.42
2022-11-28T18:02:10.349Z,8.66
2022-11-28T18:07:11.509Z,8.72
2022-11-28T18:12:13.515Z,8.83
2022-11-28T18:17:15.035Z,8.77
2022-11-28T18:22:16.160Z,8.85
2022-11-28T18:27:17.227Z,8.85
2022-11-28T18:32:18.354Z,8.69
2022-11-28T18:37:19.452Z,8.57
2022-11-28T18:42:20.797Z,8.48
2022-11-28T18:47:21.912Z,8.60
2022-11-28T18:52:23.020Z,8.53
2022-11-28T18:57:28.993Z,8.55
2022-11-28T19:02:32.096Z,8.58
2022-11-28T19:07:33.561Z,8.76
2022-11-28T19:12:36.232Z,8.79
2022-11-28T19:17:37.509Z,8.83
2022-11-28T19:22:38.629Z,8.87
2022-11-28T19:27:39.671Z,9.00
2022-11-28T19:32:40.806Z,8.78
2022-11-28T19:37:42.074Z,8.73
2022-11-28T19:42:43.133Z,8.85
2022-11-28T19:47:47.780Z,8.83
2022-11-28T19:52:50.730Z,8.75
2022-11-28T19:57:51.850Z,7.05
2022-11-28T20:02:53.073Z,7.14
2022-11-28T20:07:58.459Z,7.89
2022-11-28T20:13:00.257Z,8.20
2022-11-28T20:18:01.612Z,8.45
2022-11-28T20:23:02.744Z,8.59
2022-11-28T20:28:05.264Z,8.69
2022-11-28T20:33:06.466Z,8.59
2022-11-28T20:38:07.662Z,8.64
2022-11-28T20:43:08.953Z,8.66
2022-11-28T20:48:10.393Z,8.68
2022-11-28T20:53:11.640Z,8.67
2022-11-28T20:58:12.714Z,8.31
2022-11-28T21:03:13.866Z,6.69
2022-11-28T21:08:15.381Z,7.31
2022-11-28T21:13:16.614Z,7.95
2022-11-28T21:18:18.537Z,8.39
2022-11-28T21:23:19.747Z,8.63
2022-11-28T21:28:21.010Z,7.98
2022-11-28T21:33:22.103Z,6.71
2022-11-28T21:38:24.507Z,7.34
2022-11-28T21:43:26.968Z,7.83
2022-11-28T21:48:29.836Z,7.99
2022-11-28T21:53:32.501Z,8.18
2022-11-28T21:58:33.625Z,8.27
2022-11-28T22:03:35.327Z,8.40
2022-11-28T22:08:36.537Z,8.37
2022-11-28T22:13:39.631Z,7.83
2022-11-28T22:18:40.942Z,6.54
2022-11-28T22:23:45.447Z,7.38
2022-11-28T22:28:53.230Z,7.81
2022-11-28T22:33:54.886Z,8.03
2022-11-28T22:38:57.432Z,8.05
2022-11-28T22:44:00.902Z,7.97
2022-11-28T22:49:03.081Z,8.07
2022-11-28T22:54:04.372Z,8.13
2022-11-28T22:59:09.642Z,6.78
2022-11-28T23:04:10.774Z,5.91
2022-11-28T23:09:12.782Z,6.91
2022-11-28T23:14:14.599Z,7.49
2022-11-28T23:19:18.385Z,7.77
2022-11-28T23:24:21.263Z,6.94
2022-11-28T23:29:22.428Z,6.37
2022-11-28T23:34:23.445Z,7.09
2022-11-28T23:39:24.548Z,7.39
2022-11-28T23:44:25.654Z,7.60
2022-11-28T23:49:26.794Z,7.12
2022-11-28T23:54:27.915Z,5.39
2022-11-28T23:59:29.235Z,5.91
